Time;durP1;ratioP1;P1;durP2;ratioP2;P2;SDS_P1;SDS_P2;PMS_P1;PMS_P2;Temp;Humidity;BMP_temperature;BMP_pressure;BME280_temperature;BME280_humidity;BME280_pressure;Samples;Min_cycle;Max_cycle;Signal;HPM_P1;HPM_P2
2022/06/04 00:01:00;;;;;;;9.45;3.72;;;14.10;99.90;;;;;;5095483;28;20048;-70
2022/06/04 00:03:27;;;;;;;9.98;3.80;;;14.20;99.90;;;;;;5077355;28;20515;-69
2022/06/04 00:05:56;;;;;;;8.85;3.90;;;14.10;99.90;;;;;;5094144;28;20491;-70
2022/06/04 00:08:23;;;;;;;9.33;4.57;;;14.10;99.90;;;;;;5093760;28;20072;-69
2022/06/04 00:16:25;;;;;;;8.05;4.18;;;14.00;99.90;;;;;;5095927;28;20077;-69
2022/06/04 00:18:52;;;;;;;8.73;3.13;;;14.00;99.90;;;;;;5093923;28;20048;-70
2022/06/04 00:21:21;;;;;;;8.77;3.63;;;14.00;99.90;;;;;;5077304;28;20537;-69
2022/06/04 00:23:48;;;;;;;13.32;4.35;;;14.00;99.90;;;;;;5060332;28;20071;-69
2022/06/04 00:26:14;;;;;;;8.82;3.92;;;13.90;99.90;;;;;;5093766;28;20055;-70
2022/06/04 00:28:41;;;;;;;12.70;3.92;;;14.00;99.90;;;;;;5094812;28;20131;-68
2022/06/04 00:31:09;;;;;;;9.13;3.45;;;14.00;99.90;;;;;;5093649;28;20048;-68
2022/06/04 00:33:36;;;;;;;9.00;3.85;;;14.00;99.90;;;;;;5094105;28;20040;-68
2022/06/04 00:36:04;;;;;;;9.98;3.58;;;14.00;99.90;;;;;;5093231;28;20048;-68
2022/06/04 00:38:31;;;;;;;9.70;3.88;;;14.00;99.90;;;;;;5095507;28;20448;-68
2022/06/04 00:41:14;;;;;;;9.02;3.70;;;14.00;99.90;;;;;;5093467;28;20039;-68
2022/06/04 00:44:09;;;;;;;17.92;4.82;;;13.90;99.90;;;;;;5077483;28;20123;-68
2022/06/04 00:46:42;;;;;;;8.57;4.00;;;13.90;99.90;;;;;;5094663;28;20051;-68
2022/06/04 00:49:12;;;;;;;16.45;5.03;;;13.90;99.90;;;;;;5094544;28;20447;-68
2022/06/04 00:51:40;;;;;;;9.77;3.90;;;13.90;99.90;;;;;;5077262;28;20119;-68
2022/06/04 00:54:07;;;;;;;10.63;3.88;;;13.90;99.90;;;;;;5076721;28;20459;-68
2022/06/04 00:56:42;;;;;;;13.52;3.85;;;13.90;99.90;;;;;;5077020;28;20048;-68
2022/06/04 00:59:24;;;;;;;9.82;3.95;;;13.90;99.90;;;;;;5093994;28;20043;-68
2022/06/04 01:02:11;;;;;;;8.55;3.75;;;13.90;99.90;;;;;;5093361;28;20040;-68
2022/06/04 01:04:50;;;;;;;10.48;4.43;;;13.80;99.90;;;;;;5093915;28;20040;-68
2022/06/04 01:07:24;;;;;;;9.47;3.23;;;13.80;99.90;;;;;;5076885;28;20043;-68
2022/06/04 01:10:00;;;;;;;11.35;4.22;;;13.80;99.90;;;;;;5093856;28;20043;-67
2022/06/04 01:12:49;;;;;;;7.90;3.78;;;13.80;99.90;;;;;;5093478;28;20502;-68
2022/06/04 01:15:52;;;;;;;14.02;5.00;;;13.80;99.90;;;;;;5093639;28;20129;-69
2022/06/04 01:18:41;;;;;;;12.68;3.85;;;13.70;99.90;;;;;;5077666;28;20093;-68
2022/06/04 01:21:19;;;;;;;9.93;4.25;;;13.70;99.90;;;;;;5093095;28;20043;-68
2022/06/04 01:24:08;;;;;;;12.05;5.47;;;13.60;99.90;;;;;;5077341;28;20040;-68
2022/06/04 01:26:41;;;;;;;12.25;4.53;;;13.60;99.90;;;;;;5094437;28;20046;-68
2022/06/04 01:29:14;;;;;;;13.55;4.00;;;13.50;99.90;;;;;;5092645;28;20492;-68
2022/06/04 01:31:51;;;;;;;13.48;4.28;;;13.50;99.90;;;;;;5076198;28;20062;-68
2022/06/04 01:34:22;;;;;;;9.40;4.38;;;13.60;99.90;;;;;;5077153;28;20474;-68
2022/06/04 01:37:04;;;;;;;12.05;3.90;;;13.60;99.90;;;;;;5060036;28;20055;-68
2022/06/04 01:41:03;;;;;;;8.80;3.97;;;13.60;99.90;;;;;;5077012;28;20361;-68
2022/06/04 01:42:20;;;;;;;6.37;4.70;;;13.50;99.90;;;;;;5079292;28;20363;-68
2022/06/04 01:44:46;;;;;;;13.40;4.18;;;13.50;99.90;;;;;;5075168;28;20376;-68
2022/06/04 01:47:13;;;;;;;10.25;4.07;;;13.50;99.90;;;;;;5076044;28;20036;-68
2022/06/04 01:49:51;;;;;;;9.52;4.10;;;13.50;99.90;;;;;;5093441;28;20036;-68
2022/06/04 01:52:23;;;;;;;15.13;4.55;;;13.50;99.90;;;;;;5082805;28;20052;-68
2022/06/04 01:55:03;;;;;;;8.50;3.92;;;13.50;99.90;;;;;;5083361;28;20044;-68
2022/06/04 01:57:39;;;;;;;7.65;3.95;;;13.40;99.90;;;;;;5083690;28;20040;-68
2022/06/04 02:00:22;;;;;;;15.60;4.55;;;13.40;99.90;;;;;;5082834;28;20047;-69
2022/06/04 02:02:55;;;;;;;10.05;3.88;;;13.40;99.90;;;;;;5098284;28;20075;-68
2022/06/04 02:05:26;;;;;;;11.05;4.63;;;13.40;99.90;;;;;;5066400;28;20043;-68
2022/06/04 02:07:53;;;;;;;12.40;4.30;;;13.30;99.90;;;;;;5065532;28;20040;-68
2022/06/04 02:10:20;;;;;;;8.50;3.53;;;13.30;99.90;;;;;;5098198;28;20044;-68
2022/06/04 02:12:49;;;;;;;13.77;4.82;;;13.30;99.90;;;;;;5100129;28;20056;-68
2022/06/04 02:15:17;;;;;;;14.88;3.90;;;13.30;99.90;;;;;;5081889;28;20058;-68
2022/06/04 02:17:46;;;;;;;8.82;4.07;;;13.30;99.90;;;;;;5082031;28;20048;-68
2022/06/04 02:20:13;;;;;;;12.67;5.00;;;13.30;99.90;;;;;;5082458;28;20044;-68
2022/06/04 02:22:40;;;;;;;8.15;4.55;;;13.30;99.90;;;;;;5100134;28;20044;-68
2022/06/04 02:25:08;;;;;;;11.52;4.78;;;13.30;99.90;;;;;;5098143;28;20051;-69
2022/06/04 02:27:35;;;;;;;8.05;4.38;;;13.30;99.90;;;;;;5098610;28;20052;-69
2022/06/04 02:30:03;;;;;;;11.82;4.18;;;13.30;99.90;;;;;;5099008;28;20039;-69
2022/06/04 02:32:52;;;;;;;9.70;4.38;;;13.30;99.90;;;;;;5098482;28;20464;-69
2022/06/04 02:35:34;;;;;;;10.27;3.90;;;13.30;99.90;;;;;;5082161;28;20045;-69
2022/06/04 02:38:23;;;;;;;13.75;4.63;;;13.30;99.90;;;;;;5098489;28;20046;-69
2022/06/04 02:41:03;;;;;;;10.00;4.15;;;13.30;99.90;;;;;;5078978;28;20052;-69
2022/06/04 02:43:49;;;;;;;18.92;5.05;;;13.30;99.90;;;;;;5098322;28;20050;-69
2022/06/04 02:46:35;;;;;;;11.60;4.68;;;13.20;99.90;;;;;;5098276;28;20044;-68
2022/06/04 02:49:12;;;;;;;8.90;4.43;;;13.20;99.90;;;;;;5098801;28;20082;-69
2022/06/04 02:51:42;;;;;;;10.15;5.00;;;13.20;99.90;;;;;;5081961;28;20048;-68
2022/06/04 02:54:12;;;;;;;13.55;4.90;;;13.20;99.90;;;;;;5098047;28;20059;-68
2022/06/04 02:56:40;;;;;;;14.98;5.35;;;13.20;99.90;;;;;;5082489;28;20040;-67
2022/06/04 02:59:08;;;;;;;14.02;5.45;;;13.10;99.90;;;;;;5098088;28;20066;-68
2022/06/04 03:01:40;;;;;;;10.80;5.00;;;13.10;99.90;;;;;;5095433;28;20044;-68
2022/06/04 03:04:08;;;;;;;13.05;5.40;;;13.10;99.90;;;;;;5061725;28;20064;-69
2022/06/04 03:06:36;;;;;;;10.10;4.60;;;13.10;99.90;;;;;;5094603;28;20467;-68
2022/06/04 03:09:05;;;;;;;11.57;5.10;;;13.10;99.90;;;;;;5078871;28;20040;-68
2022/06/04 03:11:45;;;;;;;;;;;13.10;99.90;;;;;;5078613;28;20476;-69
2022/06/04 03:14:12;;;;;;;12.02;4.78;;;13.10;99.90;;;;;;5094615;28;19922;-69
2022/06/04 03:16:40;;;;;;;10.32;5.00;;;13.10;99.90;;;;;;5077872;28;20093;-69
2022/06/04 03:19:08;;;;;;;12.55;5.32;;;13.00;99.90;;;;;;5078659;28;20067;-68
2022/06/04 03:21:36;;;;;;;13.63;5.25;;;13.00;99.90;;;;;;5094902;28;20047;-68
2022/06/04 03:24:07;;;;;;;10.32;4.53;;;13.10;99.90;;;;;;5095349;28;20138;-68
2022/06/04 03:26:34;;;;;;;10.05;4.95;;;13.10;99.90;;;;;;5078557;28;20058;-68
2022/06/04 03:29:01;;;;;;;14.23;5.18;;;13.10;99.90;;;;;;5061008;28;20054;-68
2022/06/04 03:31:28;;;;;;;17.02;6.57;;;13.10;99.90;;;;;;5094546;28;20569;-68
2022/06/04 03:33:55;;;;;;;12.25;5.35;;;13.10;99.90;;;;;;5077610;28;20083;-68
2022/06/04 03:36:25;;;;;;;15.68;6.60;;;13.00;99.90;;;;;;5077291;28;20051;-68
2022/06/04 03:38:58;;;;;;;13.48;5.38;;;13.10;99.90;;;;;;5062410;28;20048;-68
2022/06/04 03:41:25;;;;;;;16.17;5.43;;;13.10;99.90;;;;;;5095209;28;20046;-69
2022/06/04 03:43:52;;;;;;;18.38;5.47;;;13.10;99.90;;;;;;5077851;28;20051;-68
2022/06/04 03:46:20;;;;;;;17.35;5.30;;;13.10;99.90;;;;;;5094290;28;20123;-71
2022/06/04 03:48:47;;;;;;;16.35;5.00;;;13.10;99.90;;;;;;5094211;28;20044;-68
2022/06/04 03:51:14;;;;;;;12.63;5.85;;;13.00;99.90;;;;;;5093756;28;20380;-68
2022/06/04 03:53:41;;;;;;;16.98;5.50;;;13.10;99.90;;;;;;5078124;28;20040;-68
2022/06/04 03:56:08;;;;;;;15.70;5.18;;;13.10;99.90;;;;;;5095182;28;20055;-68
2022/06/04 03:58:35;;;;;;;14.27;6.32;;;13.10;99.90;;;;;;5093790;28;20047;-67
2022/06/04 04:01:22;;;;;;;14.77;6.15;;;13.20;99.90;;;;;;5093754;28;20480;-68
2022/06/04 04:03:49;;;;;;;16.30;6.43;;;13.20;99.90;;;;;;5093821;28;20455;-68
2022/06/04 04:06:22;;;;;;;13.05;5.40;;;13.20;99.90;;;;;;5093967;28;20480;-68
2022/06/04 04:08:50;;;;;;;13.88;6.13;;;13.20;99.90;;;;;;5077576;28;20058;-67
2022/06/04 04:11:18;;;;;;;17.05;5.72;;;13.20;99.90;;;;;;5077047;28;20040;-67
2022/06/04 04:13:45;;;;;;;9.30;6.07;;;13.20;99.90;;;;;;5094284;28;20055;-68
2022/06/04 04:16:13;;;;;;;10.75;5.00;;;13.20;99.90;;;;;;5077075;28;20050;-68
2022/06/04 04:18:40;;;;;;;11.60;5.55;;;13.20;99.90;;;;;;5093496;28;20109;-68
2022/06/04 04:21:09;;;;;;;13.60;5.70;;;13.20;99.90;;;;;;5094422;28;20043;-68
2022/06/04 04:23:36;;;;;;;16.17;5.47;;;13.10;99.90;;;;;;5093345;28;20043;-68
2022/06/04 04:26:03;;;;;;;12.93;6.60;;;13.10;99.90;;;;;;5060153;28;20066;-68
2022/06/04 04:28:30;;;;;;;13.63;5.85;;;13.10;99.90;;;;;;5060780;28;20375;-67
2022/06/04 04:30:57;;;;;;;13.35;4.65;;;13.20;99.90;;;;;;5093043;28;20039;-68
2022/06/04 04:33:24;;;;;;;13.90;5.25;;;13.20;99.90;;;;;;5093024;28;20048;-68
2022/06/04 04:35:51;;;;;;;13.20;5.55;;;13.20;99.90;;;;;;5076553;28;20044;-68
2022/06/04 04:38:21;;;;;;;18.17;6.30;;;13.20;99.90;;;;;;5077114;28;20047;-68
2022/06/04 04:40:48;;;;;;;16.58;6.93;;;13.20;99.90;;;;;;5093834;28;20048;-67
2022/06/04 04:43:15;;;;;;;16.25;6.35;;;13.20;99.90;;;;;;5093632;28;20459;-68
2022/06/04 04:45:44;;;;;;;12.40;5.60;;;13.20;99.90;;;;;;5077076;28;20340;-68
2022/06/04 04:48:15;;;;;;;13.82;6.00;;;13.20;99.90;;;;;;5093965;28;20044;-68
2022/06/04 04:50:47;;;;;;;16.42;6.45;;;13.10;99.90;;;;;;5075693;28;20126;-68
2022/06/04 04:53:14;;;;;;;19.00;6.20;;;13.00;99.90;;;;;;5077162;28;20044;-68
2022/06/04 04:55:46;;;;;;;10.88;5.57;;;13.00;99.90;;;;;;5092947;28;20040;-68
2022/06/04 04:58:12;;;;;;;11.48;5.95;;;13.00;99.90;;;;;;5095132;28;20375;-68
2022/06/04 05:00:39;;;;;;;10.52;5.93;;;12.90;99.90;;;;;;5076264;28;20078;-68
2022/06/04 05:03:06;;;;;;;11.48;5.75;;;13.00;99.90;;;;;;5092979;28;20341;-68
2022/06/04 05:05:33;;;;;;;13.55;6.20;;;12.90;99.90;;;;;;5075795;28;20514;-68
2022/06/04 05:08:01;;;;;;;16.90;6.45;;;13.00;99.90;;;;;;5093740;28;20036;-68
2022/06/04 05:10:28;;;;;;;14.85;7.15;;;12.90;99.90;;;;;;5094148;28;20040;-68
2022/06/04 05:12:55;;;;;;;15.88;5.53;;;12.90;99.90;;;;;;5094545;28;20047;-68
2022/06/04 05:15:22;;;;;;;12.38;5.93;;;13.00;99.90;;;;;;5092784;28;20050;-67
2022/06/04 05:17:49;;;;;;;11.80;6.88;;;13.00;99.90;;;;;;5092465;28;20035;-67
2022/06/04 05:20:16;;;;;;;11.02;6.03;;;13.00;99.90;;;;;;5092387;28;20119;-67
2022/06/04 05:22:43;;;;;;;14.05;5.60;;;13.00;99.90;;;;;;5092320;28;20040;-67
2022/06/04 05:25:10;;;;;;;14.10;6.07;;;13.00;99.90;;;;;;5092513;28;20375;-68
2022/06/04 05:27:37;;;;;;;13.65;6.43;;;13.00;99.90;;;;;;5075655;28;20494;-67
2022/06/04 05:30:05;;;;;;;10.88;5.60;;;13.00;99.90;;;;;;5093801;28;20365;-67
2022/06/04 05:32:32;;;;;;;19.70;7.03;;;13.00;99.90;;;;;;5059055;28;20050;-67
2022/06/04 05:34:59;;;;;;;18.00;6.30;;;13.00;99.90;;;;;;5075969;28;20055;-68
2022/06/04 05:37:26;;;;;;;20.52;6.28;;;13.00;99.90;;;;;;5092222;28;20044;-68
2022/06/04 05:39:59;;;;;;;13.60;7.57;;;13.00;99.90;;;;;;5092352;28;20067;-68
2022/06/04 05:42:26;;;;;;;12.13;5.65;;;13.00;99.90;;;;;;5093068;28;20043;-68
2022/06/04 05:44:53;;;;;;;16.08;7.05;;;13.00;99.90;;;;;;5076213;28;20044;-68
2022/06/04 05:47:20;;;;;;;14.27;5.60;;;13.00;99.90;;;;;;5076198;28;20071;-68
2022/06/04 05:49:46;;;;;;;14.30;5.70;;;13.10;99.90;;;;;;5075984;28;20487;-68
2022/06/04 05:52:13;;;;;;;17.60;6.45;;;13.10;99.90;;;;;;5092595;28;20067;-68
2022/06/04 05:54:40;;;;;;;14.48;5.15;;;13.10;99.90;;;;;;5093240;28;20043;-68
2022/06/04 05:57:07;;;;;;;12.30;6.43;;;13.10;99.90;;;;;;5093160;28;20040;-68
2022/06/04 05:59:34;;;;;;;13.95;5.22;;;13.20;99.90;;;;;;5093470;28;20383;-68
2022/06/04 06:02:01;;;;;;;13.10;5.45;;;13.20;99.90;;;;;;5075356;28;20044;-68
2022/06/04 06:04:29;;;;;;;15.02;5.72;;;13.30;99.90;;;;;;5092413;28;20044;-68
2022/06/04 06:06:58;;;;;;;10.45;6.03;;;13.30;99.90;;;;;;5076278;28;20051;-68
2022/06/04 06:09:25;;;;;;;12.15;5.28;;;13.30;99.90;;;;;;5092253;28;20387;-68
2022/06/04 06:11:53;;;;;;;8.93;4.60;;;13.30;99.90;;;;;;5059077;28;20043;-68
2022/06/04 06:14:20;;;;;;;16.38;7.30;;;13.30;99.90;;;;;;5058886;28;20066;-68
2022/06/04 06:16:48;;;;;;;17.80;5.97;;;13.40;99.90;;;;;;5092142;28;20039;-68
2022/06/04 06:19:16;;;;;;;11.85;5.15;;;13.40;99.90;;;;;;5058761;28;20462;-68
2022/06/04 06:21:43;;;;;;;11.77;5.85;;;13.40;99.90;;;;;;5075898;28;20047;-68
2022/06/04 06:24:10;;;;;;;10.90;5.60;;;13.50;99.90;;;;;;5075381;28;20047;-68
2022/06/04 06:26:45;;;;;;;17.42;5.40;;;13.50;99.90;;;;;;5091752;28;20046;-68
2022/06/04 06:29:12;;;;;;;12.82;5.25;;;13.50;99.90;;;;;;5075761;28;20044;-68
2022/06/04 06:31:39;;;;;;;12.75;5.80;;;13.50;99.90;;;;;;5075607;28;20383;-68
2022/06/04 06:34:06;;;;;;;21.33;7.18;;;13.50;99.90;;;;;;5092928;28;20055;-68
2022/06/04 06:36:33;;;;;;;13.77;5.60;;;13.50;99.90;;;;;;5077267;28;20048;-68
2022/06/04 06:39:00;;;;;;;11.27;5.88;;;13.50;99.90;;;;;;5096342;28;20044;-68
2022/06/04 06:41:27;;;;;;;17.85;5.95;;;13.60;99.90;;;;;;5095605;28;20036;-68
2022/06/04 06:43:54;;;;;;;13.23;6.07;;;13.60;99.90;;;;;;5095712;28;20070;-68
2022/06/04 06:46:29;;;;;;;15.55;5.40;;;13.50;99.90;;;;;;5095763;28;20054;-68
2022/06/04 06:49:11;;;;;;;13.63;5.10;;;13.50;99.90;;;;;;5095637;28;20047;-68
2022/06/04 06:51:47;;;;;;;17.70;5.82;;;13.60;99.90;;;;;;5079931;28;20101;-68
2022/06/04 06:54:14;;;;;;;19.10;5.68;;;13.60;99.90;;;;;;5062282;28;20040;-68
2022/06/04 06:56:43;;;;;;;16.63;6.45;;;13.60;99.90;;;;;;5096279;28;20130;-68
2022/06/04 06:59:10;;;;;;;16.25;6.75;;;13.60;99.90;;;;;;5095489;28;20044;-68
2022/06/04 07:01:37;;;;;;;24.10;6.28;;;13.50;99.90;;;;;;5078797;28;20048;-68
2022/06/04 07:04:05;;;;;;;17.25;6.22;;;13.40;99.90;;;;;;5095206;28;20048;-71
2022/06/04 07:06:46;;;;;;;13.25;6.35;;;13.40;99.90;;;;;;5061789;28;20047;-70
2022/06/04 07:09:21;;;;;;;16.88;7.30;;;13.30;99.90;;;;;;5078769;28;20384;-70
2022/06/04 07:11:48;;;;;;;20.48;9.13;;;13.20;99.90;;;;;;5095159;28;20044;-70
2022/06/04 07:14:15;;;;;;;17.20;6.97;;;13.20;99.90;;;;;;5094759;28;20051;-70
2022/06/04 07:16:43;;;;;;;17.00;7.07;;;13.20;99.90;;;;;;5095052;28;20058;-71
2022/06/04 07:19:10;;;;;;;16.17;6.68;;;13.20;99.90;;;;;;5095570;28;20048;-72
2022/06/04 07:21:37;;;;;;;16.88;7.53;;;13.20;99.90;;;;;;5094714;28;20044;-72
2022/06/04 07:24:05;;;;;;;24.23;7.97;;;13.20;99.90;;;;;;5061484;28;20113;-72
2022/06/04 07:26:32;;;;;;;19.33;7.22;;;13.20;99.90;;;;;;5061520;28;20044;-73
2022/06/04 07:28:59;;;;;;;12.73;7.13;;;13.20;99.90;;;;;;5078116;28;20043;-72
2022/06/04 07:31:26;;;;;;;21.88;7.80;;;13.10;99.90;;;;;;5094725;28;20484;-72
2022/06/04 07:33:55;;;;;;;17.65;8.18;;;13.10;99.90;;;;;;5094750;28;20050;-72
2022/06/04 07:36:30;;;;;;;19.42;6.80;;;13.10;99.90;;;;;;5094687;28;20047;-73
2022/06/04 07:38:57;;;;;;;17.75;7.35;;;13.10;99.90;;;;;;5094394;28;20050;-72
2022/06/04 07:41:29;;;;;;;11.98;6.20;;;13.20;99.90;;;;;;5095482;28;20456;-72
2022/06/04 07:43:56;;;;;;;17.65;7.90;;;13.20;99.90;;;;;;5078286;28;20485;-72
2022/06/04 07:46:24;;;;;;;14.80;7.00;;;13.20;99.90;;;;;;5061624;28;20044;-72
2022/06/04 07:48:51;;;;;;;23.13;7.75;;;13.30;99.90;;;;;;5093722;28;20135;-71
2022/06/04 07:51:18;;;;;;;16.73;7.88;;;13.30;99.90;;;;;;5094137;28;20048;-72
2022/06/04 07:53:44;;;;;;;28.23;8.70;;;13.40;99.90;;;;;;5096214;28;20048;-72
2022/06/04 07:56:13;;;;;;;17.42;7.55;;;13.40;99.90;;;;;;5095357;28;20056;-72
2022/06/04 07:58:40;;;;;;;17.87;8.13;;;13.50;99.90;;;;;;5094776;28;20051;-71
2022/06/04 08:01:08;;;;;;;22.33;7.85;;;13.40;99.90;;;;;;5077275;28;20292;-71
2022/06/04 08:03:36;;;;;;;14.32;7.50;;;13.40;99.90;;;;;;5077246;28;20040;-72
2022/06/04 08:06:04;;;;;;;16.00;6.88;;;13.40;99.90;;;;;;5077169;28;20055;-71
2022/06/04 08:08:32;;;;;;;20.02;8.02;;;13.40;99.90;;;;;;5077511;28;20050;-71
2022/06/04 08:10:59;;;;;;;14.07;6.70;;;13.50;99.90;;;;;;5077221;28;20468;-72
2022/06/04 08:13:26;;;;;;;23.15;8.15;;;13.50;99.90;;;;;;5093845;28;20422;-72
2022/06/04 08:16:00;;;;;;;15.68;7.75;;;13.40;99.90;;;;;;5094683;28;20039;-72
2022/06/04 08:18:28;;;;;;;13.35;6.65;;;13.40;99.90;;;;;;5078125;28;20058;-71
2022/06/04 08:20:54;;;;;;;23.23;9.20;;;13.40;99.90;;;;;;5093623;28;20044;-71
2022/06/04 08:23:21;;;;;;;17.23;7.28;;;13.50;99.90;;;;;;5095130;28;20364;-71
2022/06/04 08:25:50;;;;;;;14.60;7.40;;;13.60;99.90;;;;;;5093422;28;20046;-72
2022/06/04 08:28:17;;;;;;;14.43;7.83;;;13.70;99.90;;;;;;5077644;28;20486;-73
2022/06/04 08:30:44;;;;;;;16.17;8.85;;;13.70;99.90;;;;;;5077324;28;20044;-73
2022/06/04 08:33:11;;;;;;;17.10;7.75;;;13.80;99.90;;;;;;5076955;28;20127;-72
2022/06/04 08:35:38;;;;;;;13.40;7.28;;;13.80;99.90;;;;;;5093324;28;20044;-72
2022/06/04 08:38:05;;;;;;;18.33;8.57;;;13.90;99.90;;;;;;5076532;28;20052;-72
2022/06/04 08:40:40;;;;;;;19.88;8.32;;;13.80;99.90;;;;;;5076758;28;20047;-72
2022/06/04 08:43:13;;;;;;;23.00;8.65;;;13.80;99.90;;;;;;5077399;28;20044;-72
2022/06/04 08:45:40;;;;;;;12.90;7.18;;;13.90;99.90;;;;;;5076296;28;20046;-72
2022/06/04 08:48:19;;;;;;;12.20;6.53;;;13.80;99.90;;;;;;5094295;28;20051;-72
2022/06/04 08:50:47;;;;;;;16.27;7.20;;;13.90;99.90;;;;;;5060053;28;20501;-71
2022/06/04 08:53:19;;;;;;;14.00;6.78;;;13.80;99.90;;;;;;5093033;28;20047;-72
2022/06/04 08:59:09;;;;;;;13.98;7.65;;;13.60;99.90;;;;;;5093974;28;20051;-71
2022/06/04 09:01:57;;;;;;;12.25;6.40;;;13.70;99.90;;;;;;5094291;28;20383;-72
2022/06/04 09:04:39;;;;;;;13.63;6.00;;;13.70;99.90;;;;;;5094002;28;20044;-72
2022/06/04 09:07:40;;;;;;;8.98;5.90;;;13.70;99.90;;;;;;5094812;28;20036;-65
2022/06/04 09:10:17;;;;;;;34.85;26.85;;;13.90;99.90;;;;;;5062270;28;20130;-72
2022/06/04 09:12:54;;;;;;;13.75;8.02;;;14.00;99.90;;;;;;5093763;28;20050;-73
2022/06/04 09:15:47;;;;;;;13.43;7.22;;;14.10;99.90;;;;;;5092582;28;20126;-73
2022/06/04 09:18:16;;;;;;;21.55;5.93;;;14.10;99.90;;;;;;5078192;28;20039;-72
2022/06/04 09:21:03;;;;;;;14.00;5.78;;;14.30;99.90;;;;;;5092413;28;20048;-73
2022/06/04 09:23:36;;;;;;;14.32;5.97;;;14.50;99.90;;;;;;5075646;28;20138;-71
2022/06/04 09:26:21;;;;;;;11.00;5.40;;;14.60;99.90;;;;;;5093368;28;20391;-71
2022/06/04 09:28:57;;;;;;;9.55;4.28;;;14.70;99.90;;;;;;5076411;28;20494;-71
2022/06/04 09:31:47;;;;;;;13.60;6.15;;;14.80;99.90;;;;;;5093383;28;20481;-71
2022/06/04 09:34:40;;;;;;;8.10;4.72;;;15.00;99.90;;;;;;5092324;28;20430;-71
2022/06/04 09:37:08;;;;;;;15.52;5.15;;;15.20;99.90;;;;;;5092572;28;20047;-71
2022/06/04 09:39:40;;;;;;;9.57;4.93;;;15.30;99.90;;;;;;5092144;28;20460;-71
2022/06/04 09:42:13;;;;;;;13.20;5.65;;;15.30;99.90;;;;;;5092165;28;20431;-71
2022/06/04 09:44:52;;;;;;;18.42;5.78;;;15.40;99.90;;;;;;5092062;28;20061;-71
2022/06/04 09:47:38;;;;;;;11.50;5.47;;;15.50;99.90;;;;;;5076152;28;20050;-71
2022/06/04 09:50:21;;;;;;;14.52;5.35;;;15.70;99.90;;;;;;5076476;28;20059;-71
2022/06/04 09:53:04;;;;;;;13.32;5.22;;;15.90;99.90;;;;;;5077963;28;20482;-71
2022/06/04 09:55:32;;;;;;;16.88;4.97;;;16.00;99.90;;;;;;5092305;28;20494;-71
2022/06/04 09:58:00;;;;;;;10.37;4.47;;;16.30;99.90;;;;;;5075795;28;20048;-71
2022/06/04 10:00:35;;;;;;;20.63;6.22;;;16.50;99.90;;;;;;5093971;28;20464;-71
2022/06/04 10:03:04;;;;;;;;;;;16.70;99.90;;;;;;5092547;28;20041;-71
2022/06/04 10:05:32;;;;;;;10.68;4.80;;;16.80;99.90;;;;;;5093022;28;19920;-71
2022/06/04 10:07:59;;;;;;;13.95;4.78;;;16.80;99.90;;;;;;5093409;28;20487;-71
2022/06/04 10:10:28;;;;;;;10.13;5.43;;;16.90;99.90;;;;;;5075137;28;20040;-71
2022/06/04 10:15:46;;;;;;;12.00;4.75;;;17.00;99.90;;;;;;5096981;28;20056;-71
2022/06/04 10:18:29;;;;;;;13.35;5.40;;;17.20;99.90;;;;;;5096160;28;20047;-71
2022/06/04 10:21:02;;;;;;;9.63;4.10;;;17.60;99.90;;;;;;5095896;28;20055;-71
2022/06/04 10:23:30;;;;;;;14.63;5.68;;;17.70;99.90;;;;;;5062837;28;20043;-71
2022/06/04 10:26:33;;;;;;;9.90;4.47;;;17.80;99.90;;;;;;5079192;28;20044;-70
2022/06/04 10:29:26;;;;;;;9.90;4.50;;;17.90;99.90;;;;;;5096351;28;20044;-71
2022/06/04 10:32:29;;;;;;;8.45;4.32;;;18.00;99.90;;;;;;5096337;28;20105;-71
2022/06/04 10:35:19;;;;;;;9.68;4.10;;;18.10;99.90;;;;;;5081802;28;20097;-71
2022/06/04 10:38:04;;;;;;;12.18;5.18;;;18.00;99.90;;;;;;5095806;28;20050;-71
2022/06/04 10:40:36;;;;;;;12.80;5.13;;;17.70;99.90;;;;;;5079441;28;20059;-71
2022/06/04 10:44:00;;;;;;;10.23;5.38;;;17.60;99.90;;;;;;5083100;28;20040;-72
2022/06/04 10:46:27;;;;;;;8.18;4.43;;;17.60;99.90;;;;;;5079819;28;20406;-70
2022/06/04 10:49:36;;;;;;;9.63;4.10;;;17.60;99.90;;;;;;5096487;28;20082;-71
2022/06/04 10:52:09;;;;;;;13.02;5.55;;;17.40;99.90;;;;;;5087776;28;20054;-71
2022/06/04 10:54:47;;;;;;;10.90;4.95;;;17.50;99.90;;;;;;5096066;28;20137;-71
2022/06/04 10:57:14;;;;;;;9.20;4.32;;;17.70;99.90;;;;;;5096447;28;20044;-71
2022/06/04 11:00:08;;;;;;;11.70;5.25;;;17.90;99.90;;;;;;5097434;28;20047;-71
2022/06/04 11:02:43;;;;;;;10.30;3.90;;;18.10;99.90;;;;;;5079861;28;20059;-71
2022/06/04 11:05:22;;;;;;;8.98;4.30;;;18.30;99.90;;;;;;5094988;28;20052;-71
2022/06/04 11:07:57;;;;;;;12.87;4.90;;;18.40;99.90;;;;;;5096004;28;20127;-71
2022/06/04 11:10:33;;;;;;;8.13;3.83;;;18.20;99.90;;;;;;5095888;28;20277;-71
2022/06/04 11:13:12;;;;;;;7.53;3.90;;;18.10;99.90;;;;;;5096670;28;20044;-71
2022/06/04 11:15:46;;;;;;;11.90;5.07;;;18.20;99.90;;;;;;5064060;28;20377;-68
2022/06/04 11:18:25;;;;;;;123.80;110.57;;;18.30;99.90;;;;;;5079436;28;20376;-68
2022/06/04 11:21:09;;;;;;;14.13;6.47;;;18.40;99.90;;;;;;5094876;28;20040;-68
2022/06/04 11:24:11;;;;;;;8.07;4.45;;;18.50;99.90;;;;;;5095073;28;20131;-68
2022/06/04 11:26:46;;;;;;;8.73;4.13;;;18.60;99.90;;;;;;5091551;28;20050;-68
2022/06/04 11:29:14;;;;;;;13.43;4.50;;;18.40;99.90;;;;;;5079166;28;20395;-68
2022/06/04 11:31:48;;;;;;;12.07;4.63;;;18.20;99.90;;;;;;5094863;28;20075;-68
2022/06/04 11:34:33;;;;;;;5.82;4.07;;;18.00;99.90;;;;;;5096021;28;20044;-68
2022/06/04 11:37:12;;;;;;;11.27;3.55;;;17.90;99.90;;;;;;5095682;28;20044;-68
2022/06/04 11:39:57;;;;;;;9.25;4.00;;;17.90;99.90;;;;;;5094841;28;20040;-69
2022/06/04 11:42:49;;;;;;;8.20;4.07;;;18.00;99.90;;;;;;5096623;28;20043;-69
2022/06/04 11:45:34;;;;;;;6.65;3.72;;;18.30;99.90;;;;;;5095407;28;20046;-68
2022/06/04 11:48:19;;;;;;;11.70;4.65;;;18.40;99.90;;;;;;5096042;28;20044;-67
2022/06/04 11:51:12;;;;;;;16.58;7.78;;;18.50;99.90;;;;;;5095688;28;20052;-68
2022/06/04 11:53:46;;;;;;;15.23;9.90;;;18.60;99.90;;;;;;5094364;28;20040;-68
2022/06/04 11:56:20;;;;;;;7.80;3.78;;;18.70;99.90;;;;;;5094527;28;20464;-67
2022/06/04 11:59:11;;;;;;;9.75;4.45;;;18.60;99.90;;;;;;5078574;28;20039;-67
2022/06/04 12:02:01;;;;;;;11.77;4.70;;;18.60;99.90;;;;;;5094190;28;20040;-65
2022/06/04 12:04:34;;;;;;;10.32;4.00;;;18.40;99.90;;;;;;5095158;28;20040;-65
2022/06/04 12:07:24;;;;;;;9.25;4.72;;;18.20;99.90;;;;;;5093998;28;20044;-65
2022/06/04 12:10:06;;;;;;;10.63;4.65;;;18.30;99.90;;;;;;5078534;28;20048;-65
2022/06/04 12:12:48;;;;;;;9.98;4.03;;;18.60;99.90;;;;;;5078729;28;20394;-68
2022/06/04 12:15:35;;;;;;;150.73;134.48;;;18.70;99.90;;;;;;5094830;28;20372;-67
2022/06/04 12:18:53;;;;;;;15.65;9.50;;;19.00;99.90;;;;;;5077195;28;20046;-68
2022/06/04 12:24:27;;;;;;;11.57;4.88;;;19.00;99.90;;;;;;5094742;28;20058;-68
2022/06/04 12:27:04;;;;;;;10.68;5.57;;;19.10;99.90;;;;;;5095141;28;20050;-68
2022/06/04 12:29:36;;;;;;;11.15;4.72;;;19.10;99.90;;;;;;5094721;28;20048;-69
2022/06/04 12:32:19;;;;;;;10.25;4.60;;;19.10;99.90;;;;;;5077416;28;20074;-69
2022/06/04 12:34:45;;;;;;;9.60;4.65;;;19.10;99.90;;;;;;5094410;28;20051;-69
2022/06/04 12:37:29;;;;;;;10.25;4.40;;;19.00;99.90;;;;;;5077146;28;20047;-69
2022/06/04 12:40:33;;;;;;;12.50;5.28;;;18.90;99.90;;;;;;5094378;28;20044;-69
2022/06/04 12:43:18;;;;;;;15.90;4.95;;;19.00;99.90;;;;;;5093660;28;20131;-68
2022/06/04 12:45:47;;;;;;;8.00;4.68;;;19.10;99.90;;;;;;5094503;28;20051;-68
2022/06/04 12:48:20;;;;;;;10.18;5.13;;;18.90;99.90;;;;;;5093058;28;20043;-68
2022/06/04 12:50:57;;;;;;;11.30;5.13;;;18.90;99.90;;;;;;5094191;28;20043;-68
2022/06/04 12:53:24;;;;;;;14.35;4.63;;;18.90;99.90;;;;;;5094261;28;20055;-68
2022/06/04 12:56:02;;;;;;;11.10;4.03;;;19.10;99.90;;;;;;5076483;28;20048;-68
2022/06/04 12:58:51;;;;;;;11.07;5.30;;;19.10;99.90;;;;;;5094189;28;20056;-68
2022/06/04 13:01:18;;;;;;;;;;;19.00;99.90;;;;;;5095726;28;20043;-68
2022/06/04 13:04:07;;;;;;;9.80;4.40;;;18.90;99.90;;;;;;5094222;28;20283;-68
2022/06/04 13:06:51;;;;;;;10.30;4.38;;;19.00;99.90;;;;;;5095052;28;20047;-68
2022/06/04 13:09:43;;;;;;;8.73;4.68;;;19.00;99.90;;;;;;5093087;28;20040;-67
2022/06/04 13:12:28;;;;;;;10.48;4.53;;;19.00;99.90;;;;;;5092693;28;20040;-69
2022/06/04 13:15:24;;;;;;;10.93;4.88;;;19.10;99.90;;;;;;5093380;28;20047;-68
2022/06/04 13:17:52;;;;;;;9.52;4.57;;;19.00;99.90;;;;;;5093186;28;20044;-68
2022/06/04 13:20:42;;;;;;;10.30;4.93;;;19.00;99.90;;;;;;5092549;28;20040;-68
2022/06/04 13:23:21;;;;;;;15.05;8.02;;;18.90;99.90;;;;;;5092583;28;20044;-68
2022/06/04 13:26:09;;;;;;;11.65;7.15;;;19.00;99.90;;;;;;5093619;28;20040;-68
2022/06/04 13:28:40;;;;;;;10.10;4.97;;;19.10;99.90;;;;;;5093734;28;20490;-67